createdAt,value
2022-11-13T00:01:18.177Z,77.40
2022-11-13T00:03:46.235Z,74.20
2022-11-13T00:06:17.038Z,76.10
2022-11-13T00:08:45.324Z,75.70
2022-11-13T00:11:18.159Z,76.10
2022-11-13T00:13:46.678Z,77.80
2022-11-13T00:16:16.531Z,78.60
2022-11-13T00:18:45.223Z,79.20
2022-11-13T00:21:16.642Z,79.20
2022-11-13T00:23:44.905Z,78.90
2022-11-13T00:26:15.622Z,75.00
2022-11-13T00:28:44.110Z,75.00
2022-11-13T00:31:13.414Z,74.10
2022-11-13T00:36:30.694Z,74.60
2022-11-13T00:38:58.924Z,75.40
2022-11-13T00:41:26.861Z,75.20
2022-11-13T00:43:55.003Z,74.90
2022-11-13T00:46:22.897Z,75.70
2022-11-13T00:48:50.805Z,74.70
2022-11-13T00:51:19.573Z,74.90
2022-11-13T00:53:49.035Z,75.60
2022-11-13T00:56:17.059Z,76.80
2022-11-13T00:58:45.071Z,77.40
2022-11-13T01:01:15.687Z,77.10
2022-11-13T01:03:43.657Z,75.60
2022-11-13T01:06:13.741Z,74.70
2022-11-13T01:08:42.235Z,75.70
2022-11-13T01:11:13.727Z,76.70
2022-11-13T01:13:42.265Z,75.90
2022-11-13T01:16:12.846Z,74.70
2022-11-13T01:18:42.839Z,75.80
2022-11-13T01:21:12.963Z,77.00
2022-11-13T01:23:41.487Z,75.90
2022-11-13T01:26:12.765Z,76.40
2022-11-13T01:28:41.935Z,75.70
2022-11-13T01:31:12.260Z,75.30
2022-11-13T01:33:40.385Z,76.10
2022-11-13T01:36:12.021Z,75.40
2022-11-13T01:38:40.050Z,76.80
2022-11-13T01:41:22.955Z,77.60
2022-11-13T01:43:54.802Z,76.40
2022-11-13T01:46:28.369Z,75.50
2022-11-13T01:49:02.613Z,76.80
2022-11-13T01:51:34.091Z,77.60
2022-11-13T01:54:05.976Z,76.20
2022-11-13T01:56:34.473Z,75.30
2022-11-13T01:59:09.876Z,76.80
2022-11-13T02:01:38.130Z,76.80
2022-11-13T02:04:06.460Z,77.00
2022-11-13T02:06:37.498Z,76.80
2022-11-13T02:09:06.808Z,77.70
2022-11-13T02:11:34.737Z,78.20
2022-11-13T02:14:05.418Z,80.00
2022-11-13T02:16:35.478Z,80.30
2022-11-13T02:19:04.971Z,79.70
2022-11-13T02:21:42.977Z,78.80
2022-11-13T02:24:21.983Z,76.10
2022-11-13T02:26:51.790Z,77.00
2022-11-13T02:29:19.751Z,77.00
2022-11-13T02:31:47.678Z,75.70
2022-11-13T02:34:15.624Z,75.10
2022-11-13T02:36:43.854Z,74.80
2022-11-13T02:39:13.566Z,75.70
2022-11-13T02:41:42.821Z,74.80
2022-11-13T02:44:10.737Z,77.40
2022-11-13T02:46:38.919Z,77.30
2022-11-13T02:49:07.663Z,76.50
2022-11-13T02:51:35.589Z,76.10
2022-11-13T02:54:03.630Z,73.70
2022-11-13T02:56:31.514Z,73.50
2022-11-13T02:59:00.885Z,74.80
2022-11-13T03:01:29.051Z,73.00
2022-11-13T03:03:58.229Z,74.60
2022-11-13T03:06:26.564Z,74.20
2022-11-13T03:08:54.517Z,74.90
2022-11-13T03:11:22.438Z,74.40
2022-11-13T03:13:50.335Z,73.70
2022-11-13T03:16:19.624Z,73.50
2022-11-13T03:18:47.565Z,73.50
2022-11-13T03:21:16.766Z,74.30
2022-11-13T03:23:46.056Z,74.10
2022-11-13T03:26:16.669Z,74.10
2022-11-13T03:28:44.892Z,74.00
2022-11-13T03:31:13.166Z,74.00
2022-11-13T03:33:42.869Z,73.70
2022-11-13T03:36:10.932Z,74.00
2022-11-13T03:38:38.873Z,74.40
2022-11-13T03:41:06.912Z,74.70
2022-11-13T03:43:34.787Z,74.70
2022-11-13T03:46:02.674Z,72.90
2022-11-13T03:48:30.924Z,73.70
2022-11-13T03:51:00.501Z,73.00
2022-11-13T03:53:28.413Z,73.30
2022-11-13T03:55:56.350Z,73.70
2022-11-13T03:58:24.231Z,74.30
2022-11-13T04:00:54.303Z,73.60
2022-11-13T04:03:22.262Z,73.90
2022-11-13T04:05:51.386Z,74.00
2022-11-13T04:08:20.765Z,74.00
2022-11-13T04:10:48.735Z,73.30
2022-11-13T04:13:16.666Z,73.60
2022-11-13T04:15:44.587Z,74.00
2022-11-13T04:18:12.492Z,73.80
2022-11-13T04:20:40.521Z,74.00
2022-11-13T04:23:12.468Z,74.10
2022-11-13T04:25:41.833Z,74.40
2022-11-13T04:28:10.601Z,74.70
2022-11-13T04:30:38.943Z,73.90
2022-11-13T04:33:07.575Z,73.60
2022-11-13T04:35:35.600Z,72.90
2022-11-13T04:38:03.503Z,71.80
2022-11-13T04:40:31.563Z,72.30
2022-11-13T04:42:59.852Z,72.60
2022-11-13T04:45:28.516Z,71.90
2022-11-13T04:47:56.896Z,72.10
2022-11-13T04:50:25.002Z,72.40
2022-11-13T04:52:52.939Z,72.30
2022-11-13T04:55:21.008Z,72.50
2022-11-13T04:57:51.479Z,73.30
2022-11-13T05:00:21.178Z,73.60
2022-11-13T05:02:49.081Z,73.80
2022-11-13T05:05:17.333Z,73.40
2022-11-13T05:07:45.326Z,73.70
2022-11-13T05:10:13.594Z,73.40
2022-11-13T05:12:41.808Z,74.20
2022-11-13T05:15:10.232Z,75.40
2022-11-13T05:17:39.515Z,74.90
2022-11-13T05:20:08.666Z,75.50
2022-11-13T05:22:36.585Z,75.10
2022-11-13T05:25:04.933Z,76.10
2022-11-13T05:27:32.854Z,75.70
2022-11-13T05:30:00.819Z,76.00
2022-11-13T05:32:28.726Z,76.10
2022-11-13T05:34:58.029Z,75.70
2022-11-13T05:37:25.896Z,75.70
2022-11-13T05:39:53.796Z,76.20
2022-11-13T05:42:21.674Z,73.10
2022-11-13T05:44:49.582Z,72.10
2022-11-13T05:47:17.516Z,72.10
2022-11-13T05:49:45.404Z,72.50
2022-11-13T05:52:15.089Z,71.80
2022-11-13T05:54:42.989Z,71.60
2022-11-13T05:57:10.869Z,72.20
2022-11-13T05:59:38.771Z,72.60
2022-11-13T06:02:06.856Z,73.20
2022-11-13T06:04:34.938Z,73.30
2022-11-13T06:07:02.879Z,73.80
2022-11-13T06:09:32.276Z,74.30
2022-11-13T06:12:00.277Z,74.70
2022-11-13T06:14:28.220Z,74.50
2022-11-13T06:16:56.135Z,74.40
2022-11-13T06:19:24.134Z,73.80
2022-11-13T06:21:52.133Z,73.30
2022-11-13T06:24:20.491Z,71.60
2022-11-13T06:26:49.723Z,70.70
2022-11-13T06:29:17.642Z,71.10
2022-11-13T06:31:45.567Z,71.10
2022-11-13T06:34:13.550Z,71.20
2022-11-13T06:36:41.419Z,72.50
2022-11-13T06:39:10.470Z,73.20
2022-11-13T06:41:39.810Z,70.60
2022-11-13T06:44:09.301Z,69.80
2022-11-13T06:46:37.218Z,71.80
2022-11-13T06:49:05.156Z,71.70
2022-11-13T06:51:33.264Z,71.80
2022-11-13T06:54:01.258Z,73.20
2022-11-13T06:56:29.218Z,72.60
2022-11-13T06:58:57.212Z,72.80
2022-11-13T07:01:28.109Z,73.30
2022-11-13T07:03:56.106Z,73.40
2022-11-13T07:06:25.851Z,75.00
2022-11-13T07:08:54.336Z,75.10
2022-11-13T07:11:24.055Z,74.50
2022-11-13T07:13:52.320Z,72.70
2022-11-13T07:16:20.490Z,70.40
2022-11-13T07:18:53.448Z,67.40
2022-11-13T07:21:22.691Z,67.20
2022-11-13T07:23:51.528Z,64.10
2022-11-13T07:26:20.371Z,63.20
2022-11-13T07:28:49.224Z,61.50
2022-11-13T07:31:18.284Z,60.30
2022-11-13T07:33:48.659Z,59.50
2022-11-13T07:36:18.277Z,57.40
2022-11-13T07:38:46.187Z,56.10
2022-11-13T07:41:14.161Z,54.60
2022-11-13T07:43:42.062Z,53.80
2022-11-13T07:46:09.999Z,54.50
2022-11-13T07:48:37.945Z,54.10
2022-11-13T07:51:05.984Z,53.20
2022-11-13T07:53:35.969Z,54.10
2022-11-13T07:56:04.443Z,53.00
2022-11-13T07:58:32.393Z,52.40
2022-11-13T08:01:05.170Z,54.50
2022-11-13T08:03:33.991Z,52.50
2022-11-13T08:06:03.009Z,54.90
2022-11-13T08:08:31.282Z,54.40
2022-11-13T08:11:04.009Z,53.50
2022-11-13T08:13:31.912Z,53.80
2022-11-13T08:16:01.166Z,54.50
2022-11-13T08:18:29.925Z,54.70
2022-11-13T08:20:58.350Z,56.80
2022-11-13T08:23:26.264Z,56.40
2022-11-13T08:25:54.172Z,56.40
2022-11-13T08:28:23.437Z,56.80
2022-11-13T08:30:51.698Z,57.70
2022-11-13T08:33:19.563Z,58.60
2022-11-13T08:35:54.513Z,58.50
2022-11-13T08:38:22.528Z,58.30
2022-11-13T08:40:50.768Z,59.20
2022-11-13T08:43:19.344Z,60.10
2022-11-13T08:45:49.071Z,61.60
2022-11-13T08:48:17.033Z,62.50
2022-11-13T08:50:45.266Z,63.30
2022-11-13T08:53:13.156Z,63.50
2022-11-13T08:55:41.048Z,64.90
2022-11-13T08:58:09.947Z,65.30
2022-11-13T09:00:38.041Z,64.60
2022-11-13T09:03:07.483Z,64.10
2022-11-13T09:05:35.484Z,63.90
2022-11-13T09:08:04.611Z,63.40
2022-11-13T09:10:32.611Z,64.10
2022-11-13T09:13:01.904Z,64.60
2022-11-13T09:15:30.900Z,62.90
2022-11-13T09:17:59.268Z,62.90
2022-11-13T09:20:28.896Z,64.00
2022-11-13T09:23:00.574Z,62.50
2022-11-13T09:25:35.794Z,62.60
2022-11-13T09:28:05.459Z,61.60
2022-11-13T09:30:33.787Z,61.90
2022-11-13T09:33:02.457Z,61.90
2022-11-13T09:35:35.815Z,62.20
2022-11-13T09:38:10.431Z,61.70
2022-11-13T09:40:43.446Z,62.10
2022-11-13T09:43:24.004Z,62.60
2022-11-13T09:45:55.363Z,62.00
2022-11-13T09:48:31.699Z,62.30
2022-11-13T09:51:05.715Z,62.40
2022-11-13T09:53:37.685Z,58.80
2022-11-13T09:56:17.146Z,56.00
2022-11-13T09:58:51.205Z,57.30
2022-11-13T10:01:25.874Z,58.00
2022-11-13T10:04:02.486Z,52.00
2022-11-13T10:06:44.416Z,48.60
2022-11-13T10:09:35.856Z,47.10
2022-11-13T10:12:07.488Z,46.60
2022-11-13T10:14:39.401Z,46.60
2022-11-13T10:17:15.644Z,46.80
2022-11-13T10:19:53.759Z,46.60
2022-11-13T10:22:34.430Z,46.50
2022-11-13T10:25:12.632Z,43.70
2022-11-13T10:27:40.937Z,43.30
2022-11-13T10:30:15.633Z,44.10
2022-11-13T10:32:44.742Z,44.30
2022-11-13T10:35:45.456Z,43.00
2022-11-13T10:38:22.672Z,45.00
2022-11-13T10:40:50.580Z,45.50
2022-11-13T10:43:22.309Z,44.90
2022-11-13T10:45:58.203Z,44.60
2022-11-13T10:48:28.588Z,43.20
2022-11-13T10:50:59.215Z,40.70
2022-11-13T10:53:33.971Z,39.50
2022-11-13T10:56:01.882Z,40.80
2022-11-13T10:58:30.051Z,38.20
2022-11-13T11:00:58.279Z,36.20
2022-11-13T11:03:27.161Z,36.80
2022-11-13T11:05:57.138Z,36.30
2022-11-13T11:08:32.415Z,35.00
2022-11-13T11:11:19.945Z,32.50
2022-11-13T11:13:49.047Z,33.90
2022-11-13T11:16:21.378Z,34.40
2022-11-13T11:18:54.742Z,37.00
2022-11-13T11:21:26.614Z,31.90
2022-11-13T11:24:00.420Z,32.70
2022-11-13T11:26:34.128Z,30.80
2022-11-13T11:29:09.606Z,29.00
2022-11-13T11:31:43.184Z,32.30
2022-11-13T11:34:18.886Z,29.00
2022-11-13T11:36:54.061Z,30.00
2022-11-13T11:39:34.169Z,31.60
2022-11-13T11:42:10.722Z,30.90
2022-11-13T11:44:49.220Z,29.20
2022-11-13T11:47:18.901Z,32.10
2022-11-13T11:49:46.967Z,32.00
2022-11-13T11:52:30.383Z,33.10
2022-11-13T11:55:15.124Z,28.00
2022-11-13T11:57:51.827Z,30.20
2022-11-13T12:00:21.265Z,33.60
2022-11-13T12:03:18.932Z,30.20
2022-11-13T12:05:56.471Z,29.60
2022-11-13T12:08:32.303Z,32.00
2022-11-13T12:11:08.719Z,30.10
2022-11-13T12:13:45.682Z,33.30
2022-11-13T12:16:24.631Z,30.10
2022-11-13T12:19:01.410Z,28.90
2022-11-13T12:21:37.672Z,33.00
2022-11-13T12:24:18.723Z,31.30
2022-11-13T12:26:54.272Z,32.10
2022-11-13T12:29:34.332Z,34.90
2022-11-13T12:32:12.734Z,31.80
2022-11-13T12:34:44.393Z,32.30
2022-11-13T12:37:16.743Z,32.30
2022-11-13T12:39:53.371Z,33.80
2022-11-13T12:42:31.544Z,34.40
2022-11-13T12:45:08.494Z,32.50
2022-11-13T12:47:37.206Z,32.70
2022-11-13T12:50:30.275Z,31.70
2022-11-13T12:53:01.870Z,35.20
2022-11-13T12:55:31.780Z,33.50
2022-11-13T12:58:10.589Z,31.10
2022-11-13T13:00:41.057Z,33.80
2022-11-13T13:03:28.365Z,33.10
2022-11-13T13:06:12.338Z,33.00
2022-11-13T13:09:01.602Z,35.50
2022-11-13T13:11:40.375Z,34.00
2022-11-13T13:14:34.268Z,34.60
2022-11-13T13:17:18.325Z,36.70
2022-11-13T13:19:46.315Z,32.60
2022-11-13T13:22:28.055Z,32.60
2022-11-13T13:25:04.795Z,32.00
2022-11-13T13:27:38.383Z,33.70
2022-11-13T13:30:25.221Z,32.20
2022-11-13T13:33:02.200Z,35.20
2022-11-13T13:35:37.915Z,32.80
2022-11-13T13:38:16.299Z,31.60
2022-11-13T13:40:56.528Z,33.90
2022-11-13T13:43:35.637Z,34.70
2022-11-13T13:46:12.243Z,31.50
2022-11-13T13:48:41.850Z,34.20
2022-11-13T13:51:17.928Z,36.90
2022-11-13T13:53:46.118Z,31.80
2022-11-13T13:56:15.726Z,33.20
2022-11-13T13:58:44.225Z,32.10
2022-11-13T14:01:26.454Z,33.30
2022-11-13T14:04:05.080Z,33.50
2022-11-13T14:06:33.968Z,31.10
2022-11-13T14:09:12.202Z,29.70
2022-11-13T14:11:40.120Z,34.50
2022-11-13T14:14:09.506Z,33.00
2022-11-13T14:16:49.423Z,32.30
2022-11-13T14:19:17.484Z,34.20
2022-11-13T14:21:46.827Z,33.80
2022-11-13T14:24:21.508Z,35.10
2022-11-13T14:26:50.160Z,35.40
2022-11-13T14:29:24.707Z,35.00
2022-11-13T14:31:53.979Z,34.00
2022-11-13T14:34:24.339Z,34.20
2022-11-13T14:36:52.315Z,35.10
2022-11-13T14:39:25.119Z,36.30
2022-11-13T14:41:55.891Z,37.60
2022-11-13T14:44:30.884Z,38.80
2022-11-13T14:47:03.622Z,40.50
2022-11-13T14:49:34.312Z,40.20
2022-11-13T14:52:02.284Z,39.80
2022-11-13T14:54:53.247Z,42.60
2022-11-13T14:57:20.776Z,43.00
2022-11-13T14:59:48.665Z,43.10
2022-11-13T15:02:17.928Z,44.10
2022-11-13T15:04:45.848Z,46.30
2022-11-13T15:07:23.713Z,48.20
2022-11-13T15:09:51.771Z,48.60
2022-11-13T15:12:19.666Z,49.40
2022-11-13T15:14:47.619Z,48.80
2022-11-13T15:17:19.911Z,48.70
2022-11-13T15:19:50.267Z,49.30
2022-11-13T15:22:27.153Z,50.00
2022-11-13T15:24:56.104Z,50.90
2022-11-13T15:27:23.986Z,52.00
2022-11-13T15:29:51.889Z,52.80
2022-11-13T15:32:21.151Z,53.40
2022-11-13T15:34:49.040Z,53.60
2022-11-13T15:37:18.445Z,54.10
2022-11-13T15:39:47.063Z,54.60
2022-11-13T15:42:18.621Z,54.50
2022-11-13T15:44:46.584Z,53.40
2022-11-13T15:47:29.222Z,53.70
2022-11-13T15:50:12.834Z,55.20
2022-11-13T15:52:43.760Z,55.10
2022-11-13T15:55:21.165Z,56.40
2022-11-13T15:57:49.419Z,57.00
2022-11-13T16:00:21.202Z,58.20
2022-11-13T16:02:52.007Z,58.60
2022-11-13T16:05:19.911Z,59.00
2022-11-13T16:07:47.834Z,59.00
2022-11-13T16:10:16.612Z,58.90
2022-11-13T16:12:45.768Z,58.80
2022-11-13T16:15:16.675Z,58.20
2022-11-13T16:17:46.640Z,58.30
2022-11-13T16:20:18.202Z,58.10
2022-11-13T16:22:46.474Z,58.20
2022-11-13T16:25:16.631Z,58.70
2022-11-13T16:27:45.050Z,58.40
2022-11-13T16:30:17.190Z,56.40
2022-11-13T16:32:45.107Z,57.70
2022-11-13T16:35:19.165Z,58.90
2022-11-13T16:37:47.531Z,59.20
2022-11-13T16:40:21.561Z,59.20
2022-11-13T16:42:49.523Z,59.10
2022-11-13T16:45:17.791Z,59.30
2022-11-13T16:47:46.509Z,59.40
2022-11-13T16:50:16.049Z,60.20
2022-11-13T16:52:45.389Z,59.40
2022-11-13T16:55:13.581Z,58.50
2022-11-13T16:57:41.876Z,59.00
2022-11-13T17:00:14.071Z,59.50
2022-11-13T17:02:42.048Z,60.60
2022-11-13T17:05:13.662Z,61.40
2022-11-13T17:07:41.846Z,62.10
2022-11-13T17:13:01.946Z,62.30
2022-11-13T17:15:30.111Z,62.60
2022-11-13T17:17:59.192Z,60.30
2022-11-13T17:20:28.096Z,60.30
2022-11-13T17:22:56.051Z,59.10
2022-11-13T17:25:27.886Z,59.70
2022-11-13T17:27:55.843Z,60.00
2022-11-13T17:30:23.764Z,61.80
2022-11-13T17:32:51.691Z,63.10
2022-11-13T17:35:19.631Z,63.10
2022-11-13T17:37:47.531Z,62.10
2022-11-13T17:40:15.528Z,61.30
2022-11-13T17:42:44.799Z,60.60
2022-11-13T17:45:12.726Z,61.40
2022-11-13T17:47:40.656Z,62.30
2022-11-13T17:50:09.371Z,63.00
2022-11-13T17:52:37.328Z,64.70
2022-11-13T17:55:07.325Z,65.00
2022-11-13T17:57:35.220Z,64.00
2022-11-13T18:00:05.548Z,65.50
2022-11-13T18:02:34.120Z,66.10
2022-11-13T18:05:04.234Z,64.80
2022-11-13T18:07:32.420Z,64.60
2022-11-13T18:10:00.347Z,63.80
2022-11-13T18:12:28.735Z,64.40
2022-11-13T18:14:56.719Z,65.30
2022-11-13T18:17:26.137Z,66.70
2022-11-13T18:20:01.328Z,66.40
2022-11-13T18:22:29.978Z,66.90
2022-11-13T18:24:58.086Z,67.30
2022-11-13T18:27:26.049Z,65.30
2022-11-13T18:29:54.018Z,64.10
2022-11-13T18:32:22.177Z,63.70
2022-11-13T18:34:51.464Z,65.00
2022-11-13T18:37:19.526Z,66.50
2022-11-13T18:39:47.475Z,67.40
2022-11-13T18:42:15.401Z,68.10
2022-11-13T18:44:43.320Z,68.40
2022-11-13T18:47:11.205Z,67.90
2022-11-13T18:49:39.134Z,66.80
2022-11-13T18:52:08.861Z,65.20
2022-11-13T18:54:36.838Z,65.70
2022-11-13T18:57:04.983Z,64.50
2022-11-13T18:59:33.445Z,63.30
2022-11-13T19:02:01.603Z,63.50
2022-11-13T19:04:29.606Z,65.20
2022-11-13T19:06:58.597Z,65.90
2022-11-13T19:09:28.140Z,66.70
2022-11-13T19:11:56.047Z,67.50
2022-11-13T19:14:24.115Z,68.10
2022-11-13T19:16:52.041Z,68.50
2022-11-13T19:19:22.163Z,70.00
2022-11-13T19:21:50.219Z,70.20
2022-11-13T19:24:18.320Z,70.30
2022-11-13T19:26:47.717Z,69.80
2022-11-13T19:29:15.630Z,68.60
2022-11-13T19:31:44.710Z,68.20
2022-11-13T19:34:13.278Z,67.20
2022-11-13T19:36:41.509Z,67.20
2022-11-13T19:39:10.624Z,68.90
2022-11-13T19:41:38.874Z,68.50
2022-11-13T19:44:10.785Z,68.10
2022-11-13T19:46:38.703Z,69.30
2022-11-13T19:49:06.995Z,70.70
2022-11-13T19:51:34.962Z,74.30
2022-11-13T19:54:02.848Z,75.80
2022-11-13T19:56:30.846Z,77.60
2022-11-13T19:58:58.748Z,76.50
2022-11-13T20:01:29.324Z,75.40
2022-11-13T20:03:58.414Z,73.80
2022-11-13T20:06:27.940Z,71.10
2022-11-13T20:08:56.131Z,70.10
2022-11-13T20:11:24.162Z,69.30
2022-11-13T20:13:52.117Z,67.30
2022-11-13T20:16:23.390Z,66.60
2022-11-13T20:18:53.670Z,66.40
2022-11-13T20:21:25.435Z,65.80
2022-11-13T20:23:54.336Z,65.30
2022-11-13T20:26:22.375Z,64.50
2022-11-13T20:28:50.292Z,63.80
2022-11-13T20:31:20.449Z,63.40
2022-11-13T20:33:48.979Z,62.60
2022-11-13T20:36:19.242Z,62.10
2022-11-13T20:38:51.492Z,62.00
2022-11-13T20:41:20.704Z,61.90
2022-11-13T20:43:49.066Z,61.80
2022-11-13T20:46:19.518Z,62.40
2022-11-13T20:48:47.692Z,62.00
2022-11-13T20:51:19.437Z,61.90
2022-11-13T20:53:47.903Z,61.90
2022-11-13T20:56:16.423Z,61.90
2022-11-13T20:58:44.636Z,61.90
2022-11-13T21:01:14.275Z,61.50
2022-11-13T21:03:44.556Z,61.80
2022-11-13T21:06:15.547Z,61.70
2022-11-13T21:08:45.226Z,60.10
2022-11-13T21:11:16.270Z,60.30
2022-11-13T21:13:44.163Z,60.50
2022-11-13T21:16:12.579Z,61.40
2022-11-13T21:18:40.458Z,61.10
2022-11-13T21:21:10.144Z,61.30
2022-11-13T21:23:38.454Z,61.20
2022-11-13T21:26:09.647Z,61.00
2022-11-13T21:28:37.702Z,62.10
2022-11-13T21:31:08.855Z,61.50
2022-11-13T21:33:38.029Z,63.10
2022-11-13T21:36:07.045Z,64.10
2022-11-13T21:38:35.638Z,65.00
2022-11-13T21:41:24.633Z,64.80
2022-11-13T21:43:57.715Z,66.10
2022-11-13T21:46:27.336Z,66.00
2022-11-13T21:48:59.840Z,67.50
2022-11-13T21:51:28.166Z,68.00
2022-11-13T21:53:56.232Z,67.20
2022-11-13T21:56:24.875Z,66.40
2022-11-13T21:58:54.345Z,65.40
2022-11-13T22:01:23.727Z,66.60
2022-11-13T22:03:52.050Z,66.20
2022-11-13T22:06:22.727Z,65.60
2022-11-13T22:08:56.202Z,66.80
2022-11-13T22:11:24.835Z,62.50
2022-11-13T22:13:54.458Z,65.50
2022-11-13T22:16:23.135Z,64.20
2022-11-13T22:18:54.752Z,65.60
2022-11-13T22:21:23.331Z,64.40
2022-11-13T22:23:51.753Z,65.00
2022-11-13T22:26:20.518Z,65.00
2022-11-13T22:28:49.407Z,64.50
2022-11-13T22:31:20.598Z,64.00
2022-11-13T22:33:53.652Z,64.00
2022-11-13T22:36:24.170Z,63.10
2022-11-13T22:38:52.409Z,63.20
2022-11-13T22:41:23.985Z,63.00
2022-11-13T22:43:54.318Z,63.30
2022-11-13T22:46:25.734Z,63.10
2022-11-13T22:48:55.072Z,62.40
2022-11-13T22:51:27.598Z,62.20
2022-11-13T22:53:57.336Z,62.20
2022-11-13T22:56:28.546Z,63.60
2022-11-13T22:58:58.728Z,63.80
2022-11-13T23:01:30.282Z,63.50
2022-11-13T23:04:00.779Z,63.10
2022-11-13T23:06:30.902Z,63.90
2022-11-13T23:08:59.335Z,63.80
2022-11-13T23:11:29.161Z,63.40
2022-11-13T23:14:02.368Z,63.00
2022-11-13T23:16:32.783Z,63.10
2022-11-13T23:19:02.669Z,63.50
2022-11-13T23:21:31.465Z,63.60
2022-11-13T23:23:59.979Z,63.90
2022-11-13T23:26:28.401Z,63.40
2022-11-13T23:28:57.088Z,62.10
2022-11-13T23:31:25.211Z,62.20
2022-11-13T23:33:54.503Z,62.70
2022-11-13T23:36:22.490Z,63.00
2022-11-13T23:38:50.449Z,63.10
2022-11-13T23:41:18.380Z,62.30
2022-11-13T23:46:34.302Z,63.90
2022-11-13T23:49:03.556Z,63.00
2022-11-13T23:51:31.576Z,62.70
2022-11-13T23:53:59.577Z,62.80
2022-11-13T23:56:27.503Z,63.60
2022-11-13T23:58:55.442Z,64.90
